createdAt,value
2023-05-14T00:01:20.308Z,8.97
2023-05-14T00:03:47.201Z,7.47
2023-05-14T00:06:14.922Z,8.67
2023-05-14T00:08:41.669Z,11.10
2023-05-14T00:11:09.042Z,8.10
2023-05-14T00:13:36.474Z,8.93
2023-05-14T00:16:03.509Z,8.17
2023-05-14T00:18:30.366Z,8.67
2023-05-14T00:20:57.719Z,8.80
2023-05-14T00:23:24.521Z,8.77
2023-05-14T00:25:51.342Z,8.00
2023-05-14T00:28:18.180Z,8.70
2023-05-14T00:30:45.035Z,8.10
2023-05-14T00:33:11.837Z,8.67
2023-05-14T00:35:38.637Z,10.90
2023-05-14T00:38:05.349Z,10.43
2023-05-14T00:40:32.149Z,8.23
2023-05-14T00:42:58.921Z,12.53
2023-05-14T00:45:26.021Z,10.10
2023-05-14T00:47:54.051Z,12.43
2023-05-14T00:50:21.606Z,9.50
2023-05-14T00:52:49.349Z,8.13
2023-05-14T00:55:16.892Z,7.90
2023-05-14T00:57:44.206Z,9.93
2023-05-14T01:00:11.382Z,15.63
2023-05-14T01:02:38.252Z,10.03
2023-05-14T01:05:05.508Z,9.40
2023-05-14T01:07:46.449Z,8.57
2023-05-14T01:10:42.155Z,9.13
2023-05-14T01:13:16.142Z,12.97
2023-05-14T01:15:44.914Z,10.60
2023-05-14T01:18:14.402Z,7.57
2023-05-14T01:20:41.136Z,8.50
2023-05-14T01:23:07.904Z,9.23
2023-05-14T01:25:35.328Z,8.50
2023-05-14T01:28:19.911Z,10.33
2023-05-14T01:30:57.068Z,9.83
2023-05-14T01:33:27.586Z,9.37
2023-05-14T01:35:55.725Z,8.70
2023-05-14T01:38:23.802Z,7.90
2023-05-14T01:40:51.086Z,10.10
2023-05-14T01:43:18.998Z,9.33
2023-05-14T01:45:46.081Z,8.70
2023-05-14T01:48:13.039Z,10.07
2023-05-14T01:50:39.767Z,9.90
2023-05-14T01:53:06.502Z,9.73
2023-05-14T01:55:33.292Z,9.90
2023-05-14T01:58:00.007Z,9.50
2023-05-14T02:00:27.065Z,10.47
2023-05-14T02:02:54.257Z,9.43
2023-05-14T02:05:21.179Z,10.60
2023-05-14T02:07:47.977Z,9.07
2023-05-14T02:10:14.848Z,10.33
2023-05-14T02:12:41.718Z,9.80
2023-05-14T02:15:10.925Z,9.40
2023-05-14T02:17:37.892Z,9.53
2023-05-14T02:20:05.272Z,9.10
2023-05-14T02:22:32.081Z,8.80
2023-05-14T02:24:58.864Z,9.50
2023-05-14T02:27:25.965Z,8.87
2023-05-14T02:29:53.286Z,10.30
2023-05-14T02:32:20.170Z,10.57
2023-05-14T02:34:46.923Z,9.27
2023-05-14T02:37:13.727Z,9.10
2023-05-14T02:39:40.509Z,8.63
2023-05-14T02:42:07.490Z,11.90
2023-05-14T02:44:34.311Z,8.80
2023-05-14T02:47:01.179Z,10.03
2023-05-14T02:49:27.980Z,12.47
2023-05-14T02:51:54.790Z,10.30
2023-05-14T02:54:21.511Z,9.60
2023-05-14T02:56:48.414Z,8.47
2023-05-14T02:59:15.322Z,10.10
2023-05-14T03:01:42.569Z,9.87
2023-05-14T03:04:09.960Z,14.00
2023-05-14T03:06:36.724Z,8.93
2023-05-14T03:09:03.539Z,9.80
2023-05-14T03:11:30.456Z,9.20
2023-05-14T03:13:57.242Z,8.20
2023-05-14T03:16:24.067Z,9.60
2023-05-14T03:18:50.845Z,8.70
2023-05-14T03:21:17.622Z,9.67
2023-05-14T03:23:44.412Z,9.67
2023-05-14T03:26:11.233Z,9.63
2023-05-14T03:28:37.996Z,9.07
2023-05-14T03:31:04.955Z,13.10
2023-05-14T03:33:31.857Z,9.17
2023-05-14T03:35:58.573Z,9.30
2023-05-14T03:38:25.371Z,9.13
2023-05-14T03:40:52.112Z,9.50
2023-05-14T03:43:18.968Z,10.60
2023-05-14T03:45:45.801Z,9.37
2023-05-14T03:48:12.712Z,11.47
2023-05-14T03:50:39.586Z,10.73
2023-05-14T03:53:06.340Z,9.30
2023-05-14T03:55:33.086Z,10.53
2023-05-14T03:57:59.877Z,8.93
2023-05-14T04:00:26.781Z,9.90
2023-05-14T04:02:53.785Z,8.13
2023-05-14T04:05:20.947Z,9.13
2023-05-14T04:07:47.741Z,10.53
2023-05-14T04:10:15.756Z,9.07
2023-05-14T04:12:42.920Z,9.80
2023-05-14T04:15:10.332Z,10.03
2023-05-14T04:17:37.173Z,9.20
2023-05-14T04:20:04.389Z,9.23
2023-05-14T04:22:32.040Z,8.87
2023-05-14T04:24:58.797Z,10.80
2023-05-14T04:27:25.640Z,9.87
2023-05-14T04:29:52.461Z,8.73
2023-05-14T04:32:19.208Z,9.33
2023-05-14T04:34:47.258Z,9.57
2023-05-14T04:37:14.034Z,9.67
2023-05-14T04:39:40.984Z,8.90
2023-05-14T04:42:08.234Z,10.93
2023-05-14T04:44:36.334Z,9.97
2023-05-14T04:47:03.304Z,9.00
2023-05-14T04:49:30.790Z,9.77
2023-05-14T04:51:57.514Z,9.93
2023-05-14T04:54:24.545Z,8.40
2023-05-14T04:56:51.306Z,9.43
2023-05-14T04:59:18.122Z,10.87
2023-05-14T05:01:45.769Z,9.30
2023-05-14T05:04:13.001Z,9.70
2023-05-14T05:06:40.024Z,8.70
2023-05-14T05:09:06.828Z,9.67
2023-05-14T05:11:33.641Z,9.13
2023-05-14T05:14:00.593Z,9.80
2023-05-14T05:16:27.490Z,9.60
2023-05-14T05:18:54.368Z,8.90
2023-05-14T05:21:21.197Z,8.77
2023-05-14T05:23:47.961Z,8.53
2023-05-14T05:26:14.823Z,8.90
2023-05-14T05:28:41.581Z,12.70
2023-05-14T05:31:08.440Z,8.77
2023-05-14T05:33:35.791Z,7.60
2023-05-14T05:36:02.891Z,9.30
2023-05-14T05:38:29.734Z,14.10
2023-05-14T05:40:56.633Z,9.80
2023-05-14T05:43:23.343Z,9.07
2023-05-14T05:45:50.077Z,10.37
2023-05-14T05:48:16.973Z,8.33
2023-05-14T05:50:44.909Z,9.10
2023-05-14T05:53:12.516Z,16.27
2023-05-14T05:55:39.272Z,9.50
2023-05-14T05:58:06.027Z,8.73
2023-05-14T06:00:33.189Z,8.20
2023-05-14T06:03:00.385Z,9.43
2023-05-14T06:05:27.320Z,9.70
2023-05-14T06:07:54.451Z,8.40
2023-05-14T06:10:21.283Z,8.83
2023-05-14T06:12:48.347Z,8.80
2023-05-14T06:15:15.298Z,10.07
2023-05-14T06:17:42.210Z,9.10
2023-05-14T06:20:09.985Z,9.10
2023-05-14T06:22:36.743Z,12.23
2023-05-14T06:25:03.878Z,10.10
2023-05-14T06:27:30.668Z,9.03
2023-05-14T06:29:57.559Z,8.83
2023-05-14T06:32:24.489Z,9.17
2023-05-14T06:34:51.298Z,8.60
2023-05-14T06:37:18.048Z,8.27
2023-05-14T06:39:49.929Z,7.10
2023-05-14T06:42:17.449Z,8.70
2023-05-14T06:44:45.217Z,8.60
2023-05-14T06:47:12.133Z,8.80
2023-05-14T06:49:39.626Z,12.40
2023-05-14T06:52:06.962Z,8.00
2023-05-14T06:54:33.925Z,8.07
2023-05-14T06:57:00.865Z,8.57
2023-05-14T06:59:27.809Z,9.40
2023-05-14T07:01:54.830Z,7.97
2023-05-14T07:04:21.867Z,9.53
2023-05-14T07:06:48.871Z,12.13
2023-05-14T07:09:16.580Z,8.70
2023-05-14T07:11:43.568Z,8.27
2023-05-14T07:14:10.739Z,11.67
2023-05-14T07:16:37.682Z,11.87
2023-05-14T07:19:04.512Z,8.70
2023-05-14T07:21:32.504Z,13.60
2023-05-14T07:23:59.236Z,6.80
2023-05-14T07:26:26.353Z,9.67
2023-05-14T07:28:53.115Z,6.83
2023-05-14T07:31:20.095Z,9.47
2023-05-14T07:33:46.943Z,5.47
2023-05-14T07:36:13.829Z,16.90
2023-05-14T07:38:40.657Z,7.30
2023-05-14T07:41:07.861Z,6.80
2023-05-14T07:43:34.665Z,9.50
2023-05-14T07:46:01.372Z,6.37
2023-05-14T07:48:28.271Z,5.00
2023-05-14T07:50:55.066Z,5.03
2023-05-14T07:53:22.125Z,4.53
2023-05-14T07:55:49.264Z,3.60
2023-05-14T07:58:16.775Z,4.20
2023-05-14T08:00:43.590Z,3.73
2023-05-14T08:03:10.472Z,3.77
2023-05-14T08:05:37.354Z,4.17
2023-05-14T08:08:04.241Z,6.53
2023-05-14T08:10:31.330Z,5.60
2023-05-14T08:12:58.123Z,3.13
2023-05-14T08:15:27.568Z,6.13
2023-05-14T08:17:54.935Z,5.60
2023-05-14T08:20:22.664Z,6.63
2023-05-14T08:22:49.629Z,3.50
2023-05-14T08:25:16.513Z,6.40
2023-05-14T08:27:43.221Z,5.17
2023-05-14T08:30:10.307Z,3.57
2023-05-14T08:32:38.645Z,3.90
2023-05-14T08:35:06.797Z,3.03
2023-05-14T08:37:33.620Z,2.47
2023-05-14T08:40:00.560Z,2.00
2023-05-14T08:42:29.290Z,2.40
2023-05-14T08:45:03.810Z,3.23
2023-05-14T08:47:31.627Z,2.30
2023-05-14T08:50:06.270Z,3.23
2023-05-14T08:52:34.384Z,1.90
2023-05-14T08:55:04.744Z,2.10
2023-05-14T08:57:33.356Z,2.07
2023-05-14T09:00:00.890Z,2.50
2023-05-14T09:02:31.776Z,2.17
2023-05-14T09:05:00.847Z,2.20
2023-05-14T09:07:27.863Z,2.20
2023-05-14T09:09:55.345Z,3.00
2023-05-14T09:12:22.594Z,3.00
2023-05-14T09:14:50.888Z,3.43
2023-05-14T09:17:18.923Z,2.07
2023-05-14T09:19:49.399Z,2.50
2023-05-14T09:22:17.709Z,3.63
2023-05-14T09:24:45.380Z,3.03
2023-05-14T09:27:21.502Z,2.27
2023-05-14T09:29:48.670Z,2.10
2023-05-14T09:32:15.517Z,2.63
2023-05-14T09:34:42.380Z,2.43
2023-05-14T09:37:10.093Z,2.30
2023-05-14T09:39:37.903Z,3.30
2023-05-14T09:42:05.497Z,3.10
2023-05-14T09:44:32.546Z,1.97
2023-05-14T09:46:59.570Z,4.07
2023-05-14T09:49:26.343Z,2.80
2023-05-14T09:51:53.192Z,2.33
2023-05-14T09:54:20.169Z,3.87
2023-05-14T09:56:47.526Z,2.77
2023-05-14T09:59:14.412Z,3.00
2023-05-14T10:01:43.632Z,3.27
2023-05-14T10:04:11.864Z,4.33
2023-05-14T10:06:39.880Z,2.60
2023-05-14T10:09:13.829Z,3.07
2023-05-14T10:11:44.347Z,4.70
2023-05-14T10:14:35.001Z,2.40
2023-05-14T10:17:03.002Z,3.10
2023-05-14T10:19:33.625Z,4.10
2023-05-14T10:22:05.068Z,2.63
2023-05-14T10:24:32.696Z,2.37
2023-05-14T10:26:59.860Z,4.67
2023-05-14T10:29:37.397Z,2.77
2023-05-14T10:32:08.960Z,3.60
2023-05-14T10:34:44.007Z,2.27
2023-05-14T10:37:18.167Z,2.10
2023-05-14T10:39:58.986Z,6.63
2023-05-14T10:42:35.934Z,2.70
2023-05-14T10:45:08.254Z,2.10
2023-05-14T10:47:40.013Z,1.87
2023-05-14T10:50:09.077Z,2.40
2023-05-14T10:52:36.886Z,3.43
2023-05-14T10:55:08.347Z,3.30
2023-05-14T10:57:41.963Z,5.40
2023-05-14T11:00:09.296Z,3.27
2023-05-14T11:02:38.565Z,3.20
2023-05-14T11:05:11.121Z,4.80
2023-05-14T11:07:40.073Z,2.70
2023-05-14T11:10:08.369Z,2.27
2023-05-14T11:12:37.052Z,1.97
2023-05-14T11:15:11.833Z,2.47
2023-05-14T11:17:41.003Z,3.20
2023-05-14T11:20:08.903Z,2.40
2023-05-14T11:22:37.338Z,2.33
2023-05-14T11:25:05.336Z,2.97
2023-05-14T11:27:34.505Z,2.70
2023-05-14T11:30:01.847Z,2.53
2023-05-14T11:32:28.572Z,2.67
2023-05-14T11:34:55.958Z,3.17
2023-05-14T11:37:22.741Z,2.80
2023-05-14T11:39:53.826Z,2.70
2023-05-14T11:42:22.366Z,2.73
2023-05-14T11:44:51.921Z,2.30
2023-05-14T11:47:20.607Z,4.43
2023-05-14T11:49:48.595Z,2.60
2023-05-14T11:52:19.315Z,1.97
2023-05-14T11:54:46.822Z,3.33
2023-05-14T11:57:16.797Z,2.10
2023-05-14T11:59:43.955Z,2.70
2023-05-14T12:02:15.675Z,2.90
2023-05-14T12:04:43.311Z,3.50
2023-05-14T12:07:12.128Z,2.40
2023-05-14T12:09:51.563Z,1.93
2023-05-14T12:12:21.121Z,3.70
2023-05-14T12:14:49.212Z,2.03
2023-05-14T12:17:23.241Z,2.23
2023-05-14T12:19:52.072Z,1.60
2023-05-14T12:22:22.777Z,4.90
2023-05-14T12:24:56.930Z,2.10
2023-05-14T12:27:24.880Z,3.73
2023-05-14T12:30:19.223Z,2.60
2023-05-14T12:32:51.515Z,2.43
2023-05-14T12:35:18.809Z,4.03
2023-05-14T12:37:46.056Z,1.73
2023-05-14T12:40:13.149Z,2.87
2023-05-14T12:42:40.396Z,1.87
2023-05-14T12:45:08.766Z,2.63
2023-05-14T12:47:36.859Z,1.83
2023-05-14T12:50:06.223Z,1.80
2023-05-14T12:52:38.444Z,2.20
2023-05-14T12:55:09.775Z,1.93
2023-05-14T12:57:39.099Z,2.97
2023-05-14T13:00:21.623Z,2.67
2023-05-14T13:02:48.644Z,2.53
2023-05-14T13:05:15.871Z,2.23
2023-05-14T13:07:42.800Z,2.13
2023-05-14T13:10:10.276Z,2.20
2023-05-14T13:12:37.184Z,2.60
2023-05-14T13:15:04.523Z,2.07
2023-05-14T13:17:31.425Z,1.90
2023-05-14T13:19:58.420Z,2.27
2023-05-14T13:22:25.251Z,2.03
2023-05-14T13:24:52.096Z,1.90
2023-05-14T13:27:18.933Z,2.10
2023-05-14T13:29:45.701Z,1.70
2023-05-14T13:32:12.542Z,2.40
2023-05-14T13:34:39.512Z,2.20
2023-05-14T13:37:06.523Z,2.53
2023-05-14T13:39:33.394Z,1.90
2023-05-14T13:42:01.103Z,1.93
2023-05-14T13:44:27.982Z,1.70
2023-05-14T13:46:54.947Z,2.43
2023-05-14T13:49:21.811Z,1.50
2023-05-14T13:51:48.553Z,1.30
2023-05-14T13:54:15.405Z,2.00
2023-05-14T13:56:42.224Z,2.00
2023-05-14T13:59:09.071Z,1.63
2023-05-14T14:01:35.890Z,3.70
2023-05-14T14:04:03.237Z,2.77
2023-05-14T14:06:31.284Z,2.00
2023-05-14T14:08:57.974Z,3.47
2023-05-14T14:11:24.769Z,1.80
2023-05-14T14:13:51.528Z,1.87
2023-05-14T14:16:18.514Z,4.63
2023-05-14T14:18:45.549Z,2.40
2023-05-14T14:21:12.391Z,2.57
2023-05-14T14:23:39.081Z,2.70
2023-05-14T14:26:05.902Z,9.63
2023-05-14T14:28:32.770Z,2.60
2023-05-14T14:30:59.617Z,3.10
2023-05-14T14:33:27.081Z,2.87
2023-05-14T14:35:53.875Z,4.80
2023-05-14T14:38:20.710Z,2.57
2023-05-14T14:40:47.549Z,1.80
2023-05-14T14:43:14.370Z,2.10
2023-05-14T14:45:41.259Z,2.50
2023-05-14T14:48:39.177Z,1.60
2023-05-14T14:51:07.255Z,1.50
2023-05-14T14:53:34.921Z,2.03
2023-05-14T14:56:02.248Z,1.60
2023-05-14T14:58:29.354Z,2.97
2023-05-14T15:00:57.232Z,1.70
2023-05-14T15:03:25.175Z,1.50
2023-05-14T15:05:53.777Z,1.40
2023-05-14T15:08:24.361Z,2.00
2023-05-14T15:10:51.136Z,1.60
2023-05-14T15:13:17.886Z,1.40
2023-05-14T15:15:44.667Z,1.60
2023-05-14T15:18:11.476Z,1.50
2023-05-14T15:20:38.342Z,1.97
2023-05-14T15:23:05.131Z,2.17
2023-05-14T15:25:31.928Z,1.57
2023-05-14T15:27:58.629Z,1.73
2023-05-14T15:30:25.542Z,2.70
2023-05-14T15:32:52.714Z,2.27
2023-05-14T15:35:19.649Z,2.10
2023-05-14T15:37:46.346Z,1.73
2023-05-14T15:40:13.200Z,1.60
2023-05-14T15:42:42.175Z,2.07
2023-05-14T15:45:10.527Z,1.93
2023-05-14T15:47:37.499Z,1.50
2023-05-14T15:50:05.322Z,2.23
2023-05-14T15:52:32.476Z,2.20
2023-05-14T15:54:59.730Z,2.40
2023-05-14T15:57:26.749Z,1.40
2023-05-14T15:59:53.739Z,3.97
2023-05-14T16:02:20.572Z,1.60
2023-05-14T16:04:49.412Z,1.70
2023-05-14T16:07:16.721Z,1.53
2023-05-14T16:09:43.606Z,2.70
2023-05-14T16:12:10.625Z,1.60
2023-05-14T16:14:38.579Z,2.30
2023-05-14T16:17:06.393Z,1.60
2023-05-14T16:19:33.314Z,2.37
2023-05-14T16:22:00.135Z,1.93
2023-05-14T16:24:26.969Z,6.47
2023-05-14T16:26:54.184Z,1.97
2023-05-14T16:29:20.924Z,2.93
2023-05-14T16:31:47.995Z,2.03
2023-05-14T16:34:14.814Z,2.40
2023-05-14T16:36:41.701Z,3.63
2023-05-14T16:39:08.722Z,2.37
2023-05-14T16:41:38.711Z,1.80
2023-05-14T16:44:05.586Z,2.77
2023-05-14T16:46:32.976Z,2.37
2023-05-14T16:48:59.963Z,2.23
2023-05-14T16:51:26.976Z,2.20
2023-05-14T16:53:55.448Z,2.40
2023-05-14T16:56:22.777Z,1.93
2023-05-14T16:58:49.813Z,2.23
2023-05-14T17:01:16.875Z,3.23
2023-05-14T17:03:45.590Z,2.17
2023-05-14T17:06:12.390Z,1.93
2023-05-14T17:08:39.170Z,2.37
2023-05-14T17:11:06.152Z,2.17
2023-05-14T17:13:34.085Z,3.00
2023-05-14T17:16:01.213Z,2.27
2023-05-14T17:18:28.450Z,4.00
2023-05-14T17:20:55.432Z,2.63
2023-05-14T17:23:22.300Z,2.40
2023-05-14T17:25:49.141Z,3.80
2023-05-14T17:28:15.975Z,2.47
2023-05-14T17:30:42.765Z,2.77
2023-05-14T17:33:09.632Z,3.90
2023-05-14T17:35:37.316Z,2.97
2023-05-14T17:38:04.423Z,2.63
2023-05-14T17:40:31.206Z,6.50
2023-05-14T17:42:58.223Z,2.50
2023-05-14T17:45:25.405Z,3.27
2023-05-14T17:47:52.573Z,2.07
2023-05-14T17:50:19.637Z,3.13
2023-05-14T17:52:47.627Z,1.70
2023-05-14T17:55:14.520Z,2.03
2023-05-14T17:57:42.124Z,2.00
2023-05-14T18:00:09.379Z,2.23
2023-05-14T18:02:36.244Z,2.23
2023-05-14T18:05:03.188Z,2.07
2023-05-14T18:07:31.079Z,1.90
2023-05-14T18:09:58.133Z,2.20
2023-05-14T18:12:26.771Z,2.03
2023-05-14T18:14:54.007Z,2.27
2023-05-14T18:17:21.016Z,2.20
2023-05-14T18:19:48.248Z,1.93
2023-05-14T18:22:15.685Z,1.90
2023-05-14T18:24:44.357Z,2.43
2023-05-14T18:27:11.253Z,1.67
2023-05-14T18:29:38.036Z,1.37
2023-05-14T18:32:05.359Z,1.53
2023-05-14T18:34:32.184Z,10.60
2023-05-14T18:36:59.044Z,1.80
2023-05-14T18:39:25.784Z,2.80
2023-05-14T18:41:52.626Z,2.00
2023-05-14T18:44:19.434Z,2.10
2023-05-14T18:46:46.327Z,1.70
2023-05-14T18:49:13.123Z,2.60
2023-05-14T18:51:39.909Z,1.77
2023-05-14T18:54:06.658Z,3.03
2023-05-14T18:56:33.923Z,2.57
2023-05-14T18:59:00.704Z,5.27
2023-05-14T19:01:28.139Z,2.50
2023-05-14T19:03:55.162Z,2.80
2023-05-14T19:06:22.218Z,2.23
2023-05-14T19:08:49.061Z,2.13
2023-05-14T19:11:16.326Z,3.00
2023-05-14T19:13:46.853Z,3.23
2023-05-14T19:16:13.902Z,2.00
2023-05-14T19:18:41.175Z,1.90
2023-05-14T19:21:08.135Z,1.73
2023-05-14T19:23:34.946Z,2.40
2023-05-14T19:26:01.705Z,1.97
2023-05-14T19:28:28.498Z,2.50
2023-05-14T19:30:57.260Z,2.00
2023-05-14T19:33:24.489Z,5.10
2023-05-14T19:35:51.990Z,2.10
2023-05-14T19:38:19.688Z,2.70
2023-05-14T19:40:46.537Z,1.90
2023-05-14T19:43:13.616Z,2.40
2023-05-14T19:45:42.892Z,2.93
2023-05-14T19:48:09.882Z,2.87
2023-05-14T19:50:39.517Z,1.80
2023-05-14T19:53:06.269Z,1.83
2023-05-14T19:55:33.224Z,1.90
2023-05-14T19:58:00.164Z,2.70
2023-05-14T20:00:27.216Z,2.53
2023-05-14T20:02:54.618Z,2.20
2023-05-14T20:05:21.700Z,2.90
2023-05-14T20:07:48.949Z,2.27
2023-05-14T20:10:15.734Z,3.17
2023-05-14T20:12:42.562Z,2.27
2023-05-14T20:15:09.718Z,2.30
2023-05-14T20:17:40.890Z,2.90
2023-05-14T20:20:09.710Z,2.33
2023-05-14T20:22:38.203Z,2.87
2023-05-14T20:25:05.441Z,2.00
2023-05-14T20:27:32.639Z,3.90
2023-05-14T20:29:59.502Z,2.30
2023-05-14T20:32:26.373Z,4.43
2023-05-14T20:34:53.138Z,2.10
2023-05-14T20:37:19.911Z,2.43
2023-05-14T20:39:47.021Z,3.17
2023-05-14T20:42:13.834Z,3.40
2023-05-14T20:44:40.792Z,2.50
2023-05-14T20:47:07.673Z,2.40
2023-05-14T20:49:34.424Z,2.20
2023-05-14T20:52:01.507Z,2.40
2023-05-14T20:54:28.255Z,4.00
2023-05-14T20:56:55.088Z,3.73
2023-05-14T20:59:21.857Z,2.53
2023-05-14T21:01:48.688Z,2.50
2023-05-14T21:04:16.016Z,2.90
2023-05-14T21:06:42.958Z,2.70
2023-05-14T21:09:10.840Z,2.77
2023-05-14T21:11:37.980Z,2.63
2023-05-14T21:14:04.889Z,3.00
2023-05-14T21:16:31.880Z,3.30
2023-05-14T21:18:58.914Z,2.33
2023-05-14T21:21:26.161Z,2.60
2023-05-14T21:23:53.078Z,2.63
2023-05-14T21:26:22.340Z,2.77
2023-05-14T21:28:49.209Z,2.43
2023-05-14T21:31:16.147Z,3.10
2023-05-14T21:33:43.131Z,3.30
2023-05-14T21:36:10.829Z,4.13
2023-05-14T21:38:38.087Z,2.93
2023-05-14T21:41:05.015Z,3.23
2023-05-14T21:43:31.926Z,2.70
2023-05-14T21:45:58.716Z,3.10
2023-05-14T21:48:25.733Z,3.00
2023-05-14T21:50:52.575Z,2.53
2023-05-14T21:53:19.395Z,2.90
2023-05-14T21:55:46.482Z,3.13
2023-05-14T21:58:13.528Z,3.00
2023-05-14T22:00:40.458Z,3.17
2023-05-14T22:03:07.635Z,5.20
2023-05-14T22:05:34.789Z,2.90
2023-05-14T22:08:01.809Z,4.60
2023-05-14T22:10:28.658Z,3.00
2023-05-14T22:12:55.758Z,2.77
2023-05-14T22:15:23.170Z,3.10
2023-05-14T22:17:50.253Z,4.10
2023-05-14T22:20:17.110Z,3.10
2023-05-14T22:22:43.894Z,3.67
2023-05-14T22:25:10.785Z,4.17
2023-05-14T22:27:37.550Z,2.60
2023-05-14T22:30:04.931Z,2.63
2023-05-14T22:32:31.802Z,13.60
2023-05-14T22:34:58.574Z,5.63
2023-05-14T22:37:25.506Z,3.70
2023-05-14T22:39:52.212Z,3.00
2023-05-14T22:42:20.315Z,3.37
2023-05-14T22:44:47.251Z,3.63
2023-05-14T22:47:14.063Z,3.07
2023-05-14T22:49:41.455Z,2.67
2023-05-14T22:52:08.696Z,2.77
2023-05-14T22:54:36.313Z,3.40
2023-05-14T22:57:03.955Z,4.87
2023-05-14T22:59:30.777Z,2.93
2023-05-14T23:01:57.533Z,4.03
2023-05-14T23:04:24.415Z,5.70
2023-05-14T23:06:51.365Z,3.33
2023-05-14T23:09:18.081Z,3.33
2023-05-14T23:11:44.869Z,3.73
2023-05-14T23:14:11.955Z,6.77
2023-05-14T23:16:38.787Z,3.17
2023-05-14T23:19:05.695Z,3.20
2023-05-14T23:21:33.036Z,4.53
2023-05-14T23:23:59.756Z,2.73
2023-05-14T23:26:26.618Z,3.30
2023-05-14T23:28:53.407Z,3.70
2023-05-14T23:31:21.544Z,3.63
2023-05-14T23:33:48.301Z,3.30
2023-05-14T23:36:15.499Z,3.10
2023-05-14T23:38:42.407Z,3.60
2023-05-14T23:41:09.227Z,3.80
2023-05-14T23:43:36.034Z,5.37
2023-05-14T23:46:02.853Z,6.70
2023-05-14T23:48:29.954Z,3.40
2023-05-14T23:50:56.725Z,5.10
2023-05-14T23:53:23.444Z,3.63
2023-05-14T23:55:50.414Z,3.77
2023-05-14T23:58:17.181Z,3.80
